createdAt,value
2022-08-28T00:02:12.832Z,98886.63
2022-08-28T00:04:41.196Z,98887.08
2022-08-28T00:07:09.923Z,98887.00
2022-08-28T00:09:38.627Z,98882.98
2022-08-28T00:12:07.580Z,98884.21
2022-08-28T00:14:36.283Z,98881.63
2022-08-28T00:17:04.675Z,98880.20
2022-08-28T00:19:37.929Z,98877.63
2022-08-28T00:22:08.018Z,98874.73
2022-08-28T00:24:37.348Z,98874.35
2022-08-28T00:27:24.067Z,98869.87
2022-08-28T00:29:52.203Z,98867.64
2022-08-28T00:32:24.065Z,98870.10
2022-08-28T00:34:53.237Z,98867.75
2022-08-28T00:37:24.603Z,98869.13
2022-08-28T00:39:52.918Z,98869.46
2022-08-28T00:42:21.263Z,98871.85
2022-08-28T00:44:49.320Z,98867.10
2022-08-28T00:47:17.407Z,98869.97
2022-08-28T00:49:53.617Z,98867.73
2022-08-28T00:52:24.956Z,98864.21
2022-08-28T00:54:59.140Z,98863.55
2022-08-28T00:57:35.415Z,98856.20
2022-08-28T01:00:11.722Z,98855.34
2022-08-28T01:02:40.132Z,98853.44
2022-08-28T01:05:10.153Z,98848.23
2022-08-28T01:07:39.440Z,98842.08
2022-08-28T01:10:11.745Z,98847.27
2022-08-28T01:12:39.859Z,98842.33
2022-08-28T01:15:14.072Z,98839.11
2022-08-28T01:17:47.094Z,98835.61
2022-08-28T01:20:19.767Z,98835.09
2022-08-28T01:23:04.151Z,98828.48
2022-08-28T01:25:34.670Z,98823.71
2022-08-28T01:28:06.046Z,98825.33
2022-08-28T01:30:35.187Z,98821.67
2022-08-28T01:33:03.704Z,98814.59
2022-08-28T01:35:38.651Z,98812.45
2022-08-28T01:38:06.821Z,98810.57
2022-08-28T01:40:41.162Z,98808.56
2022-08-28T01:43:21.308Z,98812.09
2022-08-28T01:45:53.473Z,98808.81
2022-08-28T01:48:24.638Z,98808.27
2022-08-28T01:50:53.166Z,98807.83
2022-08-28T01:53:24.978Z,98803.27
2022-08-28T01:55:55.342Z,98802.30
2022-08-28T01:58:25.215Z,98796.21
2022-08-28T02:00:56.088Z,98794.77
2022-08-28T02:03:24.540Z,98794.71
2022-08-28T02:05:52.562Z,98792.62
2022-08-28T02:08:21.431Z,98784.71
2022-08-28T02:10:49.897Z,98786.84
2022-08-28T02:13:17.842Z,98777.42
2022-08-28T02:15:46.610Z,98780.52
2022-08-28T02:18:15.077Z,98775.27
2022-08-28T02:20:43.570Z,98776.35
2022-08-28T02:23:11.887Z,98770.71
2022-08-28T02:25:40.179Z,98769.66
2022-08-28T02:28:08.408Z,98773.04
2022-08-28T02:30:37.084Z,98771.95
2022-08-28T02:33:05.503Z,98772.80
2022-08-28T02:35:33.704Z,98774.98
2022-08-28T02:38:02.216Z,98773.71
2022-08-28T02:40:30.569Z,98773.44
2022-08-28T02:42:58.792Z,98768.32
2022-08-28T02:45:26.807Z,98763.98
2022-08-28T02:47:55.349Z,98768.84
2022-08-28T02:50:24.508Z,98773.73
2022-08-28T02:52:53.148Z,98774.88
2022-08-28T02:55:22.366Z,98778.33
2022-08-28T02:57:50.393Z,98778.59
2022-08-28T03:00:23.153Z,98777.85
2022-08-28T03:02:52.791Z,98778.89
2022-08-28T03:05:26.064Z,98780.09
2022-08-28T03:07:54.633Z,98777.17
2022-08-28T03:10:23.306Z,98773.37
2022-08-28T03:12:52.297Z,98773.23
2022-08-28T03:15:20.671Z,98771.38
2022-08-28T03:17:49.081Z,98773.10
2022-08-28T03:20:19.766Z,98771.03
2022-08-28T03:23:06.815Z,98773.24
2022-08-28T03:25:35.223Z,98779.23
2022-08-28T03:28:03.333Z,98778.56
2022-08-28T03:30:31.361Z,98782.95
2022-08-28T03:32:59.559Z,98786.20
2022-08-28T03:35:27.656Z,98788.45
2022-08-28T03:37:55.625Z,98790.61
2022-08-28T03:40:23.621Z,98797.39
2022-08-28T03:42:53.473Z,98791.78
2022-08-28T03:45:22.666Z,98797.42
2022-08-28T03:47:51.626Z,98798.92
2022-08-28T03:50:19.890Z,98801.42
2022-08-28T03:52:48.191Z,98809.98
2022-08-28T03:55:19.277Z,98815.77
2022-08-28T03:57:47.401Z,98821.66
2022-08-28T04:00:16.430Z,98828.44
2022-08-28T04:02:46.551Z,98826.19
2022-08-28T04:05:14.876Z,98828.27
2022-08-28T04:07:42.802Z,98835.36
2022-08-28T04:10:12.667Z,98839.14
2022-08-28T04:12:40.650Z,98842.61
2022-08-28T04:15:09.551Z,98850.99
2022-08-28T04:17:41.845Z,98848.21
2022-08-28T04:20:11.521Z,98846.02
2022-08-28T04:22:39.867Z,98845.16
2022-08-28T04:25:08.624Z,98852.53
2022-08-28T04:27:36.923Z,98851.91
2022-08-28T04:30:06.206Z,98846.85
2022-08-28T04:32:36.025Z,98850.08
2022-08-28T04:35:07.019Z,98848.52
2022-08-28T04:37:35.069Z,98843.53
2022-08-28T04:40:06.412Z,98845.58
2022-08-28T04:42:34.681Z,98843.52
2022-08-28T04:45:03.137Z,98843.77
2022-08-28T04:47:31.513Z,98838.61
2022-08-28T04:49:59.592Z,98838.68
2022-08-28T04:52:28.075Z,98831.04
2022-08-28T04:54:56.564Z,98829.43
2022-08-28T04:57:25.168Z,98836.84
2022-08-28T04:59:53.233Z,98835.73
2022-08-28T05:02:21.230Z,98839.27
2022-08-28T05:04:49.443Z,98833.65
2022-08-28T05:07:17.593Z,98831.58
2022-08-28T05:09:46.037Z,98835.17
2022-08-28T05:12:17.721Z,98838.02
2022-08-28T05:14:45.468Z,98841.51
2022-08-28T05:17:17.409Z,98843.29
2022-08-28T05:19:45.509Z,98842.41
2022-08-28T05:22:13.461Z,98840.98
2022-08-28T05:24:41.377Z,98840.62
2022-08-28T05:27:09.687Z,98841.02
2022-08-28T05:29:37.880Z,98841.25
2022-08-28T05:32:06.016Z,98840.30
2022-08-28T05:34:34.212Z,98837.83
2022-08-28T05:37:02.796Z,98838.05
2022-08-28T05:39:30.784Z,98837.30
2022-08-28T05:41:58.808Z,98840.44
2022-08-28T05:44:26.936Z,98841.29
2022-08-28T05:46:54.886Z,98843.02
2022-08-28T05:49:23.088Z,98843.84
2022-08-28T05:51:51.536Z,98842.82
2022-08-28T05:54:19.532Z,98838.23
2022-08-28T05:56:48.248Z,98840.12
2022-08-28T05:59:17.172Z,98842.27
2022-08-28T06:01:50.311Z,98841.92
2022-08-28T06:04:26.307Z,98848.35
2022-08-28T06:06:55.048Z,98849.38
2022-08-28T06:09:29.632Z,98846.76
2022-08-28T06:12:01.866Z,98849.11
2022-08-28T06:14:31.899Z,98849.39
2022-08-28T06:17:00.954Z,98847.52
2022-08-28T06:19:31.952Z,98851.31
2022-08-28T06:22:07.338Z,98858.52
2022-08-28T06:24:35.980Z,98864.45
2022-08-28T06:27:04.258Z,98868.73
2022-08-28T06:29:32.072Z,98866.89
2022-08-28T06:32:02.027Z,98866.90
2022-08-28T06:34:30.405Z,98868.23
2022-08-28T06:36:58.410Z,98867.86
2022-08-28T06:39:26.453Z,98870.05
2022-08-28T06:41:54.564Z,98869.20
2022-08-28T06:44:24.511Z,98873.83
2022-08-28T06:46:55.116Z,98869.73
2022-08-28T06:49:23.471Z,98871.42
2022-08-28T06:51:52.057Z,98864.46
2022-08-28T06:54:23.264Z,98865.27
2022-08-28T06:56:51.783Z,98861.27
2022-08-28T06:59:20.174Z,98854.60
2022-08-28T07:01:48.139Z,98852.88
2022-08-28T07:04:16.175Z,98854.88
2022-08-28T07:06:53.650Z,98858.34
2022-08-28T07:09:23.711Z,98858.79
2022-08-28T07:11:52.352Z,98867.91
2022-08-28T07:14:20.414Z,98871.23
2022-08-28T07:16:48.511Z,98877.28
2022-08-28T07:19:16.790Z,98874.69
2022-08-28T07:21:47.131Z,98873.88
2022-08-28T07:24:16.653Z,98873.06
2022-08-28T07:26:46.131Z,98870.80
2022-08-28T07:29:14.991Z,98865.52
2022-08-28T07:31:47.292Z,98866.36
2022-08-28T07:34:19.890Z,98864.77
2022-08-28T07:36:48.971Z,98862.34
2022-08-28T07:39:18.352Z,98862.96
2022-08-28T07:41:48.479Z,98869.48
2022-08-28T07:44:48.351Z,98877.90
2022-08-28T07:47:27.770Z,98880.62
2022-08-28T07:49:58.791Z,98884.35
2022-08-28T07:52:30.103Z,98882.84
2022-08-28T07:54:59.890Z,98872.83
2022-08-28T07:57:28.700Z,98864.16
2022-08-28T08:00:17.971Z,98862.41
2022-08-28T08:02:46.643Z,98861.23
2022-08-28T08:05:17.487Z,98865.45
2022-08-28T08:07:46.151Z,98870.52
2022-08-28T08:10:19.837Z,98872.16
2022-08-28T08:12:49.426Z,98866.04
2022-08-28T08:15:20.626Z,98867.12
2022-08-28T08:17:49.056Z,98868.45
2022-08-28T08:20:17.286Z,98868.02
2022-08-28T08:22:45.313Z,98874.17
2022-08-28T08:25:15.480Z,98870.95
2022-08-28T08:27:44.414Z,98865.34
2022-08-28T08:30:13.494Z,98860.98
2022-08-28T08:32:41.434Z,98858.02
2022-08-28T08:35:09.819Z,98859.64
2022-08-28T08:37:38.087Z,98861.91
2022-08-28T08:40:10.475Z,98864.21
2022-08-28T08:42:39.754Z,98866.48
2022-08-28T08:45:14.595Z,98865.59
2022-08-28T08:47:48.177Z,98864.73
2022-08-28T08:50:22.894Z,98861.60
2022-08-28T08:52:56.855Z,98865.25
2022-08-28T08:55:29.295Z,98861.52
2022-08-28T08:58:12.093Z,98857.66
2022-08-28T09:01:24.755Z,98860.55
2022-08-28T09:04:21.678Z,98861.66
2022-08-28T09:07:16.654Z,98860.71
2022-08-28T09:09:52.975Z,98860.23
2022-08-28T09:12:37.812Z,98863.96
2022-08-28T09:15:10.495Z,98864.33
2022-08-28T09:17:51.156Z,98870.19
2022-08-28T09:20:30.191Z,98870.16
2022-08-28T09:23:12.368Z,98869.45
2022-08-28T09:26:15.061Z,98875.45
2022-08-28T09:28:46.754Z,98869.61
2022-08-28T09:31:20.805Z,98874.98
2022-08-28T09:33:54.437Z,98882.89
2022-08-28T09:36:28.116Z,98880.73
2022-08-28T09:39:41.926Z,98881.05
2022-08-28T09:42:33.221Z,98880.98
2022-08-28T09:45:14.223Z,98875.36
2022-08-28T09:47:57.726Z,98875.36
2022-08-28T09:50:44.025Z,98875.84
2022-08-28T09:53:12.310Z,98876.94
2022-08-28T09:56:04.767Z,98878.53
2022-08-28T09:58:45.235Z,98873.23
2022-08-28T10:01:31.776Z,98873.39
2022-08-28T10:04:14.555Z,98866.70
2022-08-28T10:06:50.666Z,98870.95
2022-08-28T10:09:37.230Z,98878.30
2022-08-28T10:12:33.735Z,98879.56
2022-08-28T10:15:15.227Z,98875.13
2022-08-28T10:18:05.187Z,98877.36
2022-08-28T10:20:45.695Z,98873.56
2022-08-28T10:23:36.178Z,98873.16
2022-08-28T10:26:24.587Z,98871.66
2022-08-28T10:29:25.305Z,98873.73
2022-08-28T10:32:12.701Z,98875.14
2022-08-28T10:35:06.578Z,98879.09
2022-08-28T10:37:52.994Z,98879.02
2022-08-28T10:40:35.569Z,98877.67
2022-08-28T10:43:10.681Z,98874.75
2022-08-28T10:45:39.746Z,98873.55
2022-08-28T10:48:34.989Z,98871.96
2022-08-28T10:51:35.419Z,98869.88
2022-08-28T10:54:18.386Z,98868.98
2022-08-28T10:57:10.611Z,98865.73
2022-08-28T10:59:42.060Z,98869.14
2022-08-28T11:02:14.465Z,98869.30
2022-08-28T11:04:42.695Z,98868.92
2022-08-28T11:07:20.855Z,98874.92
2022-08-28T11:09:50.066Z,98875.60
2022-08-28T11:12:17.955Z,98877.08
2022-08-28T11:14:53.525Z,98881.45
2022-08-28T11:17:30.856Z,98883.37
2022-08-28T11:20:18.737Z,98887.05
2022-08-28T11:23:00.518Z,98886.95
2022-08-28T11:25:41.614Z,98881.99
2022-08-28T11:28:18.741Z,98881.90
2022-08-28T11:30:50.622Z,98883.57
2022-08-28T11:33:52.757Z,98882.16
2022-08-28T11:36:20.616Z,98883.96
2022-08-28T11:38:51.535Z,98887.80
2022-08-28T11:41:24.681Z,98888.35
2022-08-28T11:43:52.995Z,98892.70
2022-08-28T11:46:35.020Z,98890.41
2022-08-28T11:49:05.958Z,98891.55
2022-08-28T11:51:58.535Z,98891.94
2022-08-28T11:54:32.674Z,98884.09
2022-08-28T11:57:09.795Z,98887.83
2022-08-28T12:00:05.145Z,98887.52
2022-08-28T12:02:44.533Z,98888.58
2022-08-28T12:05:15.336Z,98894.75
2022-08-28T12:07:49.756Z,98896.64
2022-08-28T12:10:23.975Z,98897.81
2022-08-28T12:12:54.069Z,98897.35
2022-08-28T12:15:27.795Z,98894.55
2022-08-28T12:17:57.775Z,98892.23
2022-08-28T12:20:25.614Z,98891.32
2022-08-28T12:22:58.056Z,98892.01
2022-08-28T12:25:38.456Z,98892.71
2022-08-28T12:28:22.396Z,98888.02
2022-08-28T12:31:07.646Z,98884.55
2022-08-28T12:33:47.534Z,98885.66
2022-08-28T12:36:17.855Z,98888.65
2022-08-28T12:38:52.215Z,98882.98
2022-08-28T12:41:22.235Z,98883.15
2022-08-28T12:43:59.219Z,98888.56
2022-08-28T12:46:31.887Z,98886.23
2022-08-28T12:49:02.250Z,98885.27
2022-08-28T12:51:35.925Z,98886.35
2022-08-28T12:54:07.874Z,98886.83
2022-08-28T12:56:38.454Z,98884.06
2022-08-28T12:59:44.976Z,98884.53
2022-08-28T13:02:28.535Z,98882.23
2022-08-28T13:05:04.994Z,98884.88
2022-08-28T13:07:46.935Z,98890.71
2022-08-28T13:10:33.485Z,98891.40
2022-08-28T13:13:11.584Z,98890.16
2022-08-28T13:15:50.210Z,98890.64
2022-08-28T13:18:44.343Z,98890.52
2022-08-28T13:21:32.679Z,98890.34
2022-08-28T13:24:21.992Z,98886.02
2022-08-28T13:27:00.703Z,98879.54
2022-08-28T13:29:29.632Z,98878.89
2022-08-28T13:32:16.935Z,98876.36
2022-08-28T13:35:26.175Z,98877.80
2022-08-28T13:38:00.817Z,98880.29
2022-08-28T13:40:56.860Z,98879.48
2022-08-28T13:43:29.527Z,98881.89
2022-08-28T13:45:58.414Z,98880.45
2022-08-28T13:48:28.230Z,98882.19
2022-08-28T13:51:10.690Z,98879.58
2022-08-28T13:53:39.858Z,98878.79
2022-08-28T13:56:07.918Z,98883.30
2022-08-28T13:58:35.902Z,98883.24
2022-08-28T14:01:05.159Z,98881.99
2022-08-28T14:03:36.996Z,98886.61
2022-08-28T14:06:18.876Z,98887.00
2022-08-28T14:08:47.344Z,98885.80
2022-08-28T14:11:16.295Z,98891.90
2022-08-28T14:13:46.881Z,98888.29
2022-08-28T14:16:25.552Z,98893.73
2022-08-28T14:18:54.265Z,98894.98
2022-08-28T14:21:24.872Z,98891.75
2022-08-28T14:23:53.008Z,98894.56
2022-08-28T14:26:21.084Z,98895.95
2022-08-28T14:28:49.124Z,98896.10
2022-08-28T14:31:17.731Z,98895.08
2022-08-28T14:33:46.546Z,98900.15
2022-08-28T14:36:16.924Z,98898.42
2022-08-28T14:38:45.304Z,98897.30
2022-08-28T14:41:15.255Z,98898.32
2022-08-28T14:43:44.087Z,98897.44
2022-08-28T14:46:24.863Z,98900.35
2022-08-28T14:48:55.471Z,98898.30
2022-08-28T14:51:25.210Z,98895.83
2022-08-28T14:53:54.451Z,98896.84
2022-08-28T14:56:22.990Z,98905.39
2022-08-28T14:58:51.110Z,98911.45
2022-08-28T15:01:39.505Z,98906.88
2022-08-28T15:04:16.278Z,98909.92
2022-08-28T15:06:45.131Z,98918.64
2022-08-28T15:09:14.733Z,98916.61
2022-08-28T15:11:43.990Z,98919.75
2022-08-28T15:14:12.772Z,98923.00
2022-08-28T15:16:44.604Z,98926.23
2022-08-28T15:19:18.466Z,98927.14
2022-08-28T15:21:56.011Z,98933.36
2022-08-28T15:24:27.686Z,98923.11
2022-08-28T15:26:57.050Z,98926.73
2022-08-28T15:31:06.369Z,98932.80
2022-08-28T15:33:35.170Z,98938.41
2022-08-28T15:36:03.590Z,98931.34
2022-08-28T15:38:56.906Z,98930.80
2022-08-28T15:41:27.091Z,98938.33
2022-08-28T15:43:57.457Z,98930.16
2022-08-28T15:46:25.712Z,98934.69
2022-08-28T15:48:54.558Z,98935.98
2022-08-28T15:51:26.154Z,98933.35
2022-08-28T15:53:54.641Z,98936.68
2022-08-28T15:56:23.220Z,98930.58
2022-08-28T15:58:52.576Z,98942.04
2022-08-28T16:01:23.896Z,98940.02
2022-08-28T16:03:52.319Z,98943.33
2022-08-28T16:06:22.556Z,98950.16
2022-08-28T16:08:51.258Z,98952.48
2022-08-28T16:11:23.631Z,98943.83
2022-08-28T16:13:52.850Z,98950.58
2022-08-28T16:16:21.790Z,98946.36
2022-08-28T16:18:50.492Z,98945.95
2022-08-28T16:21:20.446Z,98947.22
2022-08-28T16:23:51.591Z,98945.09
2022-08-28T16:26:20.042Z,98939.00
2022-08-28T16:28:48.110Z,98942.34
2022-08-28T16:31:20.490Z,98949.73
2022-08-28T16:33:50.310Z,98944.08
2022-08-28T16:36:19.420Z,98948.44
2022-08-28T16:38:52.863Z,98949.25
2022-08-28T16:41:32.676Z,98952.66
2022-08-28T16:44:01.970Z,98957.45
2022-08-28T16:46:30.413Z,98960.88
2022-08-28T16:49:00.247Z,98965.69
2022-08-28T16:51:30.013Z,98962.13
2022-08-28T16:53:58.552Z,98962.88
2022-08-28T16:56:27.241Z,98963.52
2022-08-28T16:58:57.510Z,98963.41
2022-08-28T17:01:27.306Z,98962.63
2022-08-28T17:03:57.053Z,98964.95
2022-08-28T17:06:30.390Z,98968.49
2022-08-28T17:08:59.411Z,98971.48
2022-08-28T17:11:28.010Z,98974.95
2022-08-28T17:13:56.734Z,98975.44
2022-08-28T17:16:26.490Z,98973.22
2022-08-28T17:18:54.835Z,98979.27
2022-08-28T17:21:42.350Z,98984.08
2022-08-28T17:24:15.451Z,98988.36
2022-08-28T17:26:44.885Z,98990.90
2022-08-28T17:29:13.126Z,98995.34
2022-08-28T17:31:41.726Z,98997.40
2022-08-28T17:34:12.070Z,98998.06
2022-08-28T17:36:42.930Z,98996.36
2022-08-28T17:39:14.850Z,99001.54
2022-08-28T17:41:44.470Z,99005.77
2022-08-28T17:44:15.595Z,99007.15
2022-08-28T17:46:43.852Z,99007.18
2022-08-28T17:49:11.791Z,99011.11
2022-08-28T17:51:43.753Z,99007.73
2022-08-28T17:54:14.595Z,99014.08
2022-08-28T17:56:43.371Z,99013.86
2022-08-28T17:59:12.952Z,99016.13
2022-08-28T18:01:42.451Z,99018.02
2022-08-28T18:04:11.448Z,99012.09
2022-08-28T18:06:41.253Z,99014.14
2022-08-28T18:09:11.075Z,99010.48
2022-08-28T18:11:39.650Z,99010.52
2022-08-28T18:14:09.710Z,99006.65
2022-08-28T18:16:39.152Z,99005.94
2022-08-28T18:19:10.172Z,99006.36
2022-08-28T18:21:39.730Z,99012.11
2022-08-28T18:24:09.293Z,99008.61
2022-08-28T18:26:37.890Z,99007.64
2022-08-28T18:29:07.074Z,99011.77
2022-08-28T18:31:35.541Z,99013.73
2022-08-28T18:34:04.370Z,99015.52
2022-08-28T18:36:33.571Z,99007.23
2022-08-28T18:39:01.910Z,99006.10
2022-08-28T18:41:34.541Z,99003.77
2022-08-28T18:44:15.909Z,99001.64
2022-08-28T18:46:45.650Z,99007.09
2022-08-28T18:49:14.490Z,99002.58
2022-08-28T18:51:45.490Z,99004.70
2022-08-28T18:54:16.411Z,99004.83
2022-08-28T18:56:48.321Z,99000.21
2022-08-28T18:59:19.190Z,98991.19
2022-08-28T19:01:47.377Z,98990.79
2022-08-28T19:04:15.650Z,98987.37
2022-08-28T19:06:44.303Z,98985.52
2022-08-28T19:09:19.389Z,98981.10
2022-08-28T19:11:49.454Z,98975.73
2022-08-28T19:14:17.840Z,98972.61
2022-08-28T19:16:46.510Z,98973.63
2022-08-28T19:19:15.290Z,98966.73
2022-08-28T19:21:45.071Z,98969.53
2022-08-28T19:24:16.971Z,98970.11
2022-08-28T19:26:45.750Z,98970.17
2022-08-28T19:29:14.955Z,98965.86
2022-08-28T19:31:46.804Z,98965.51
2022-08-28T19:34:14.862Z,98965.02
2022-08-28T19:36:43.126Z,98963.27
2022-08-28T19:39:11.831Z,98962.79
2022-08-28T19:41:40.262Z,98959.48
2022-08-28T19:44:08.734Z,98962.09
2022-08-28T19:46:38.644Z,98965.77
2022-08-28T19:49:08.073Z,98975.09
2022-08-28T19:51:37.922Z,98978.20
2022-08-28T19:54:11.643Z,98979.02
2022-08-28T19:56:40.782Z,98975.37
2022-08-28T19:59:09.663Z,98976.92
2022-08-28T20:04:30.161Z,98972.25
2022-08-28T20:07:02.706Z,98971.27
2022-08-28T20:09:31.021Z,98973.53
2022-08-28T20:12:01.671Z,98972.14
2022-08-28T20:14:32.323Z,98975.66
2022-08-28T20:17:01.103Z,98973.70
2022-08-28T20:19:29.443Z,98976.17
2022-08-28T20:21:58.117Z,98972.78
2022-08-28T20:24:26.902Z,98973.27
2022-08-28T20:26:55.407Z,98971.25
2022-08-28T20:29:24.891Z,98970.06
2022-08-28T20:31:53.482Z,98970.78
2022-08-28T20:34:22.270Z,98969.91
2022-08-28T20:36:50.853Z,98967.68
2022-08-28T20:39:20.271Z,98970.27
2022-08-28T20:41:49.990Z,98971.80
2022-08-28T20:44:20.642Z,98970.46
2022-08-28T20:46:50.963Z,98966.44
2022-08-28T20:49:22.602Z,98961.15
2022-08-28T20:51:57.496Z,98968.19
2022-08-28T20:54:39.422Z,98973.05
2022-08-28T20:57:10.442Z,98971.22
2022-08-28T20:59:41.102Z,98969.60
2022-08-28T21:02:14.070Z,98966.30
2022-08-28T21:04:43.932Z,98973.58
2022-08-28T21:07:13.922Z,98971.81
2022-08-28T21:10:05.478Z,98972.74
2022-08-28T21:12:31.230Z,98979.98
2022-08-28T21:15:00.403Z,98989.75
2022-08-28T21:17:30.728Z,98998.56
2022-08-28T21:20:06.710Z,98993.63
2022-08-28T21:22:36.014Z,98998.40
2022-08-28T21:25:07.950Z,99000.38
2022-08-28T21:27:37.081Z,99002.52
2022-08-28T21:30:07.402Z,98997.21
2022-08-28T21:32:36.691Z,98996.44
2022-08-28T21:35:08.060Z,98996.77
2022-08-28T21:37:36.355Z,98994.11
2022-08-28T21:40:06.975Z,98987.74
2022-08-28T21:42:35.250Z,98978.88
2022-08-28T21:45:08.380Z,98973.87
2022-08-28T21:47:40.051Z,98976.40
2022-08-28T21:50:08.985Z,98978.36
2022-08-28T21:52:36.854Z,98989.90
2022-08-28T21:55:09.828Z,98992.73
2022-08-28T21:57:37.778Z,98981.95
2022-08-28T22:00:18.717Z,98978.91
2022-08-28T22:02:47.673Z,98990.21
2022-08-28T22:05:16.145Z,98985.94
2022-08-28T22:07:46.771Z,98987.49
2022-08-28T22:10:15.407Z,98980.84
2022-08-28T22:12:43.394Z,98983.67
2022-08-28T22:15:11.561Z,98983.80
2022-08-28T22:17:39.564Z,98987.98
2022-08-28T22:20:08.338Z,98983.41
2022-08-28T22:22:54.692Z,98991.23
2022-08-28T22:25:22.906Z,98991.13
2022-08-28T22:27:51.013Z,98996.99
2022-08-28T22:30:20.450Z,99001.02
2022-08-28T22:32:48.170Z,99003.20
2022-08-28T22:35:16.218Z,99002.00
2022-08-28T22:37:44.125Z,98997.14
2022-08-28T22:40:13.825Z,98993.20
2022-08-28T22:42:43.051Z,98992.44
2022-08-28T22:45:11.145Z,98986.52
2022-08-28T22:47:40.158Z,98982.91
2022-08-28T22:50:08.955Z,98980.17
2022-08-28T22:52:37.799Z,98980.55
2022-08-28T22:55:12.785Z,98976.03
2022-08-28T22:57:41.138Z,98975.13
2022-08-28T23:00:12.582Z,98977.69
2022-08-28T23:02:42.319Z,98981.69
2022-08-28T23:05:10.477Z,98987.11
2022-08-28T23:07:39.325Z,98988.32
2022-08-28T23:10:08.026Z,98994.21
2022-08-28T23:12:36.380Z,98994.50
2022-08-28T23:15:07.707Z,98991.95
2022-08-28T23:17:35.701Z,98993.44
2022-08-28T23:20:08.248Z,98990.70
2022-08-28T23:22:38.895Z,98987.55
2022-08-28T23:25:08.319Z,98989.21
2022-08-28T23:27:36.881Z,98984.87
2022-08-28T23:30:07.417Z,98980.09
2022-08-28T23:32:35.534Z,98982.96
2022-08-28T23:35:07.275Z,98980.73
2022-08-28T23:37:35.690Z,98980.55
2022-08-28T23:40:08.940Z,98980.44
2022-08-28T23:42:37.710Z,98978.27
2022-08-28T23:45:07.044Z,98982.02
2022-08-28T23:47:35.042Z,98980.40
2022-08-28T23:50:12.704Z,98979.88
2022-08-28T23:52:40.828Z,98987.27
2022-08-28T23:55:12.508Z,98990.92
2022-08-28T23:57:40.334Z,98991.97
